sensor_id;sensor_type;location;lat;lon;timestamp;P1;durP1;ratioP1;P2;durP2;ratioP2
51780;SDS011;37844;57.126;24.288;2023-07-13T00:02:44;17.95;;;4.63;;
51780;SDS011;37844;57.126;24.288;2023-07-13T00:05:28;10.20;;;4.55;;
51780;SDS011;37844;57.126;24.288;2023-07-13T00:08:12;9.68;;;3.67;;
51780;SDS011;37844;57.126;24.288;2023-07-13T00:10:56;10.45;;;4.82;;
51780;SDS011;37844;57.126;24.288;2023-07-13T00:13:40;10.95;;;4.43;;
51780;SDS011;37844;57.126;24.288;2023-07-13T00:16:26;20.65;;;5.53;;
51780;SDS011;37844;57.126;24.288;2023-07-13T00:19:10;11.80;;;4.57;;
51780;SDS011;37844;57.126;24.288;2023-07-13T00:21:56;14.30;;;5.18;;
51780;SDS011;37844;57.126;24.288;2023-07-13T00:24:40;10.00;;;4.65;;
51780;SDS011;37844;57.126;24.288;2023-07-13T00:27:25;11.63;;;4.15;;
51780;SDS011;37844;57.126;24.288;2023-07-13T00:30:15;15.07;;;4.93;;
51780;SDS011;37844;57.126;24.288;2023-07-13T00:33:00;14.52;;;4.65;;
51780;SDS011;37844;57.126;24.288;2023-07-13T00:35:45;9.52;;;4.88;;
51780;SDS011;37844;57.126;24.288;2023-07-13T00:38:29;11.13;;;4.18;;
51780;SDS011;37844;57.126;24.288;2023-07-13T00:41:14;8.07;;;3.85;;
51780;SDS011;37844;57.126;24.288;2023-07-13T00:43:58;16.20;;;4.63;;
51780;SDS011;37844;57.126;24.288;2023-07-13T00:46:43;22.38;;;4.72;;
51780;SDS011;37844;57.126;24.288;2023-07-13T00:49:27;15.82;;;5.65;;
51780;SDS011;37844;57.126;24.288;2023-07-13T00:52:14;18.45;;;4.07;;
51780;SDS011;37844;57.126;24.288;2023-07-13T00:54:58;9.18;;;4.03;;
51780;SDS011;37844;57.126;24.288;2023-07-13T00:57:43;12.93;;;3.97;;
51780;SDS011;37844;57.126;24.288;2023-07-13T01:00:28;13.77;;;3.72;;
51780;SDS011;37844;57.126;24.288;2023-07-13T01:03:13;12.88;;;4.63;;
51780;SDS011;37844;57.126;24.288;2023-07-13T01:05:57;15.88;;;4.53;;
51780;SDS011;37844;57.126;24.288;2023-07-13T01:08:41;8.38;;;4.30;;
51780;SDS011;37844;57.126;24.288;2023-07-13T01:11:25;9.40;;;4.10;;
51780;SDS011;37844;57.126;24.288;2023-07-13T01:14:10;12.45;;;4.30;;
51780;SDS011;37844;57.126;24.288;2023-07-13T01:16:54;12.52;;;3.83;;
51780;SDS011;37844;57.126;24.288;2023-07-13T01:19:40;16.75;;;5.53;;
51780;SDS011;37844;57.126;24.288;2023-07-13T01:22:28;11.90;;;4.78;;
51780;SDS011;37844;57.126;24.288;2023-07-13T01:25:12;12.93;;;4.68;;
51780;SDS011;37844;57.126;24.288;2023-07-13T01:27:55;8.13;;;4.10;;
51780;SDS011;37844;57.126;24.288;2023-07-13T01:30:40;7.18;;;4.25;;
51780;SDS011;37844;57.126;24.288;2023-07-13T01:33:24;8.93;;;4.30;;
51780;SDS011;37844;57.126;24.288;2023-07-13T01:36:09;10.75;;;4.25;;
51780;SDS011;37844;57.126;24.288;2023-07-13T01:38:54;23.92;;;6.93;;
51780;SDS011;37844;57.126;24.288;2023-07-13T01:41:38;14.57;;;4.45;;
51780;SDS011;37844;57.126;24.288;2023-07-13T01:44:22;12.98;;;3.83;;
51780;SDS011;37844;57.126;24.288;2023-07-13T01:47:07;12.48;;;4.22;;
51780;SDS011;37844;57.126;24.288;2023-07-13T01:49:51;14.23;;;4.03;;
51780;SDS011;37844;57.126;24.288;2023-07-13T01:52:35;11.40;;;3.92;;
51780;SDS011;37844;57.126;24.288;2023-07-13T01:55:20;10.77;;;4.47;;
51780;SDS011;37844;57.126;24.288;2023-07-13T01:58:06;8.98;;;4.05;;
51780;SDS011;37844;57.126;24.288;2023-07-13T02:00:51;16.38;;;4.35;;
51780;SDS011;37844;57.126;24.288;2023-07-13T02:03:36;17.77;;;5.20;;
51780;SDS011;37844;57.126;24.288;2023-07-13T02:06:20;15.30;;;4.68;;
51780;SDS011;37844;57.126;24.288;2023-07-13T02:09:04;9.88;;;4.25;;
51780;SDS011;37844;57.126;24.288;2023-07-13T02:11:47;16.70;;;4.97;;
51780;SDS011;37844;57.126;24.288;2023-07-13T02:14:32;11.45;;;4.18;;
51780;SDS011;37844;57.126;24.288;2023-07-13T02:17:16;17.08;;;4.47;;
51780;SDS011;37844;57.126;24.288;2023-07-13T02:20:00;18.10;;;7.63;;
51780;SDS011;37844;57.126;24.288;2023-07-13T02:22:44;9.82;;;4.47;;
51780;SDS011;37844;57.126;24.288;2023-07-13T02:25:28;12.43;;;4.65;;
51780;SDS011;37844;57.126;24.288;2023-07-13T02:28:12;9.65;;;3.75;;
51780;SDS011;37844;57.126;24.288;2023-07-13T02:31:03;11.48;;;4.10;;
51780;SDS011;37844;57.126;24.288;2023-07-13T02:33:49;8.70;;;3.35;;
51780;SDS011;37844;57.126;24.288;2023-07-13T02:36:33;18.17;;;4.70;;
51780;SDS011;37844;57.126;24.288;2023-07-13T02:39:17;13.40;;;4.22;;
51780;SDS011;37844;57.126;24.288;2023-07-13T02:42:08;7.60;;;3.85;;
51780;SDS011;37844;57.126;24.288;2023-07-13T02:44:59;11.70;;;4.63;;
51780;SDS011;37844;57.126;24.288;2023-07-13T02:47:43;10.98;;;4.53;;
51780;SDS011;37844;57.126;24.288;2023-07-13T02:50:27;15.75;;;4.30;;
51780;SDS011;37844;57.126;24.288;2023-07-13T02:53:11;16.00;;;4.20;;
51780;SDS011;37844;57.126;24.288;2023-07-13T02:55:55;13.60;;;4.18;;
51780;SDS011;37844;57.126;24.288;2023-07-13T02:58:39;7.35;;;4.15;;
51780;SDS011;37844;57.126;24.288;2023-07-13T03:01:23;10.93;;;4.47;;
51780;SDS011;37844;57.126;24.288;2023-07-13T03:04:08;11.18;;;4.50;;
51780;SDS011;37844;57.126;24.288;2023-07-13T03:06:52;9.20;;;4.57;;
51780;SDS011;37844;57.126;24.288;2023-07-13T03:09:36;16.10;;;4.88;;
51780;SDS011;37844;57.126;24.288;2023-07-13T03:12:20;13.70;;;5.00;;
51780;SDS011;37844;57.126;24.288;2023-07-13T03:15:04;8.68;;;4.18;;
51780;SDS011;37844;57.126;24.288;2023-07-13T03:17:48;19.13;;;5.05;;
51780;SDS011;37844;57.126;24.288;2023-07-13T03:20:33;8.13;;;3.63;;
51780;SDS011;37844;57.126;24.288;2023-07-13T03:23:18;15.07;;;4.47;;
51780;SDS011;37844;57.126;24.288;2023-07-13T03:28:46;25.30;;;5.10;;
51780;SDS011;37844;57.126;24.288;2023-07-13T03:31:32;8.18;;;4.20;;
51780;SDS011;37844;57.126;24.288;2023-07-13T03:34:18;7.47;;;4.25;;
51780;SDS011;37844;57.126;24.288;2023-07-13T03:37:02;9.98;;;4.13;;
51780;SDS011;37844;57.126;24.288;2023-07-13T03:39:46;23.23;;;5.95;;
51780;SDS011;37844;57.126;24.288;2023-07-13T03:42:30;10.65;;;4.25;;
51780;SDS011;37844;57.126;24.288;2023-07-13T03:45:14;14.65;;;4.30;;
51780;SDS011;37844;57.126;24.288;2023-07-13T03:47:58;11.48;;;4.88;;
51780;SDS011;37844;57.126;24.288;2023-07-13T03:50:42;14.55;;;4.28;;
51780;SDS011;37844;57.126;24.288;2023-07-13T03:53:26;10.80;;;4.32;;
51780;SDS011;37844;57.126;24.288;2023-07-13T03:56:10;12.80;;;4.38;;
51780;SDS011;37844;57.126;24.288;2023-07-13T03:58:55;17.20;;;4.10;;
51780;SDS011;37844;57.126;24.288;2023-07-13T04:01:40;9.23;;;3.38;;
51780;SDS011;37844;57.126;24.288;2023-07-13T04:04:24;6.85;;;3.80;;
51780;SDS011;37844;57.126;24.288;2023-07-13T04:07:08;15.50;;;5.25;;
51780;SDS011;37844;57.126;24.288;2023-07-13T04:09:52;19.83;;;5.93;;
51780;SDS011;37844;57.126;24.288;2023-07-13T04:12:36;10.82;;;5.72;;
51780;SDS011;37844;57.126;24.288;2023-07-13T04:15:20;13.57;;;5.43;;
51780;SDS011;37844;57.126;24.288;2023-07-13T04:18:04;11.35;;;4.53;;
51780;SDS011;37844;57.126;24.288;2023-07-13T04:20:49;21.65;;;4.47;;
51780;SDS011;37844;57.126;24.288;2023-07-13T04:23:35;14.48;;;5.55;;
51780;SDS011;37844;57.126;24.288;2023-07-13T04:26:20;18.50;;;4.35;;
51780;SDS011;37844;57.126;24.288;2023-07-13T04:29:04;13.98;;;5.15;;
51780;SDS011;37844;57.126;24.288;2023-07-13T04:31:49;13.35;;;4.38;;
51780;SDS011;37844;57.126;24.288;2023-07-13T04:34:33;9.48;;;4.97;;
51780;SDS011;37844;57.126;24.288;2023-07-13T04:37:19;8.80;;;4.30;;
51780;SDS011;37844;57.126;24.288;2023-07-13T04:40:04;27.70;;;4.97;;
51780;SDS011;37844;57.126;24.288;2023-07-13T04:42:49;9.98;;;3.90;;
51780;SDS011;37844;57.126;24.288;2023-07-13T04:45:34;9.45;;;3.70;;
51780;SDS011;37844;57.126;24.288;2023-07-13T04:48:19;9.23;;;4.65;;
51780;SDS011;37844;57.126;24.288;2023-07-13T04:51:04;16.65;;;4.43;;
51780;SDS011;37844;57.126;24.288;2023-07-13T04:53:49;23.90;;;4.65;;
51780;SDS011;37844;57.126;24.288;2023-07-13T04:56:33;12.57;;;5.10;;
51780;SDS011;37844;57.126;24.288;2023-07-13T04:59:17;12.68;;;5.25;;
51780;SDS011;37844;57.126;24.288;2023-07-13T05:02:01;19.75;;;6.85;;
51780;SDS011;37844;57.126;24.288;2023-07-13T05:04:48;11.45;;;5.72;;
51780;SDS011;37844;57.126;24.288;2023-07-13T05:07:32;17.77;;;7.20;;
51780;SDS011;37844;57.126;24.288;2023-07-13T05:10:17;17.58;;;6.90;;
51780;SDS011;37844;57.126;24.288;2023-07-13T05:13:01;12.07;;;7.05;;
51780;SDS011;37844;57.126;24.288;2023-07-13T05:15:59;24.27;;;10.52;;
51780;SDS011;37844;57.126;24.288;2023-07-13T05:18:45;20.70;;;9.60;;
51780;SDS011;37844;57.126;24.288;2023-07-13T05:21:29;17.75;;;8.18;;
51780;SDS011;37844;57.126;24.288;2023-07-13T05:24:13;14.35;;;7.15;;
51780;SDS011;37844;57.126;24.288;2023-07-13T05:26:57;15.63;;;6.35;;
51780;SDS011;37844;57.126;24.288;2023-07-13T05:29:41;11.98;;;6.18;;
51780;SDS011;37844;57.126;24.288;2023-07-13T05:32:25;14.30;;;6.22;;
51780;SDS011;37844;57.126;24.288;2023-07-13T05:35:09;14.63;;;6.85;;
51780;SDS011;37844;57.126;24.288;2023-07-13T05:37:53;10.20;;;5.20;;
51780;SDS011;37844;57.126;24.288;2023-07-13T05:40:37;12.98;;;5.22;;
51780;SDS011;37844;57.126;24.288;2023-07-13T05:43:21;10.95;;;4.85;;
51780;SDS011;37844;57.126;24.288;2023-07-13T05:46:05;9.68;;;5.10;;
51780;SDS011;37844;57.126;24.288;2023-07-13T05:48:49;12.00;;;5.38;;
51780;SDS011;37844;57.126;24.288;2023-07-13T05:51:33;14.00;;;6.35;;
51780;SDS011;37844;57.126;24.288;2023-07-13T05:54:17;11.38;;;5.28;;
51780;SDS011;37844;57.126;24.288;2023-07-13T05:57:01;9.57;;;4.32;;
51780;SDS011;37844;57.126;24.288;2023-07-13T05:59:45;10.25;;;5.28;;
51780;SDS011;37844;57.126;24.288;2023-07-13T06:02:29;10.65;;;5.72;;
51780;SDS011;37844;57.126;24.288;2023-07-13T06:05:14;15.48;;;5.18;;
51780;SDS011;37844;57.126;24.288;2023-07-13T06:07:58;14.05;;;5.30;;
51780;SDS011;37844;57.126;24.288;2023-07-13T06:10:42;13.95;;;5.28;;
51780;SDS011;37844;57.126;24.288;2023-07-13T06:13:27;14.75;;;5.28;;
51780;SDS011;37844;57.126;24.288;2023-07-13T06:16:11;13.10;;;4.88;;
51780;SDS011;37844;57.126;24.288;2023-07-13T06:18:56;11.00;;;5.00;;
51780;SDS011;37844;57.126;24.288;2023-07-13T06:21:40;14.73;;;7.30;;
51780;SDS011;37844;57.126;24.288;2023-07-13T06:24:24;11.15;;;5.60;;
51780;SDS011;37844;57.126;24.288;2023-07-13T06:27:08;10.93;;;5.05;;
51780;SDS011;37844;57.126;24.288;2023-07-13T06:29:52;8.38;;;4.82;;
51780;SDS011;37844;57.126;24.288;2023-07-13T06:32:36;8.90;;;4.50;;
51780;SDS011;37844;57.126;24.288;2023-07-13T06:35:20;10.43;;;5.22;;
51780;SDS011;37844;57.126;24.288;2023-07-13T06:38:04;11.95;;;5.13;;
51780;SDS011;37844;57.126;24.288;2023-07-13T06:40:48;14.77;;;5.97;;
51780;SDS011;37844;57.126;24.288;2023-07-13T06:43:32;13.80;;;6.00;;
51780;SDS011;37844;57.126;24.288;2023-07-13T06:46:17;10.93;;;4.68;;
51780;SDS011;37844;57.126;24.288;2023-07-13T06:49:01;12.57;;;6.13;;
51780;SDS011;37844;57.126;24.288;2023-07-13T06:51:53;11.02;;;5.53;;
51780;SDS011;37844;57.126;24.288;2023-07-13T06:54:44;14.27;;;4.78;;
51780;SDS011;37844;57.126;24.288;2023-07-13T06:57:28;8.10;;;4.43;;
51780;SDS011;37844;57.126;24.288;2023-07-13T07:00:12;11.10;;;5.30;;
51780;SDS011;37844;57.126;24.288;2023-07-13T07:02:57;11.43;;;5.35;;
51780;SDS011;37844;57.126;24.288;2023-07-13T07:05:41;16.38;;;4.97;;
51780;SDS011;37844;57.126;24.288;2023-07-13T07:08:25;19.13;;;5.57;;
51780;SDS011;37844;57.126;24.288;2023-07-13T07:11:11;23.48;;;4.47;;
51780;SDS011;37844;57.126;24.288;2023-07-13T07:14:03;10.52;;;4.82;;
51780;SDS011;37844;57.126;24.288;2023-07-13T07:16:48;13.77;;;5.45;;
51780;SDS011;37844;57.126;24.288;2023-07-13T07:19:39;22.60;;;9.95;;
51780;SDS011;37844;57.126;24.288;2023-07-13T07:22:24;9.48;;;5.45;;
51780;SDS011;37844;57.126;24.288;2023-07-13T07:25:10;16.95;;;4.80;;
51780;SDS011;37844;57.126;24.288;2023-07-13T07:27:55;7.05;;;4.35;;
51780;SDS011;37844;57.126;24.288;2023-07-13T07:30:41;11.38;;;5.28;;
51780;SDS011;37844;57.126;24.288;2023-07-13T07:33:27;12.60;;;5.60;;
51780;SDS011;37844;57.126;24.288;2023-07-13T07:36:11;12.80;;;6.05;;
51780;SDS011;37844;57.126;24.288;2023-07-13T07:38:55;12.30;;;5.60;;
51780;SDS011;37844;57.126;24.288;2023-07-13T07:41:39;8.13;;;5.07;;
51780;SDS011;37844;57.126;24.288;2023-07-13T07:44:23;9.77;;;4.63;;
51780;SDS011;37844;57.126;24.288;2023-07-13T07:47:08;18.98;;;5.03;;
51780;SDS011;37844;57.126;24.288;2023-07-13T07:49:52;8.40;;;4.70;;
51780;SDS011;37844;57.126;24.288;2023-07-13T07:52:36;11.68;;;4.97;;
51780;SDS011;37844;57.126;24.288;2023-07-13T07:55:20;7.38;;;4.43;;
51780;SDS011;37844;57.126;24.288;2023-07-13T07:58:05;9.40;;;5.70;;
51780;SDS011;37844;57.126;24.288;2023-07-13T08:00:49;14.05;;;4.53;;
51780;SDS011;37844;57.126;24.288;2023-07-13T08:03:33;10.73;;;4.88;;
51780;SDS011;37844;57.126;24.288;2023-07-13T08:06:18;16.15;;;9.18;;
51780;SDS011;37844;57.126;24.288;2023-07-13T08:09:03;10.57;;;5.63;;
51780;SDS011;37844;57.126;24.288;2023-07-13T08:11:48;9.82;;;5.05;;
51780;SDS011;37844;57.126;24.288;2023-07-13T08:14:32;8.93;;;5.30;;
51780;SDS011;37844;57.126;24.288;2023-07-13T08:17:16;9.85;;;6.45;;
51780;SDS011;37844;57.126;24.288;2023-07-13T08:20:00;9.80;;;5.47;;
51780;SDS011;37844;57.126;24.288;2023-07-13T08:22:45;11.65;;;5.25;;
51780;SDS011;37844;57.126;24.288;2023-07-13T08:25:29;10.43;;;5.47;;
51780;SDS011;37844;57.126;24.288;2023-07-13T08:28:13;9.77;;;5.28;;
51780;SDS011;37844;57.126;24.288;2023-07-13T08:31:03;10.40;;;5.05;;
51780;SDS011;37844;57.126;24.288;2023-07-13T08:33:49;10.02;;;4.97;;
51780;SDS011;37844;57.126;24.288;2023-07-13T08:36:33;7.85;;;4.28;;
51780;SDS011;37844;57.126;24.288;2023-07-13T08:39:17;11.93;;;4.65;;
51780;SDS011;37844;57.126;24.288;2023-07-13T08:42:04;12.77;;;4.30;;
51780;SDS011;37844;57.126;24.288;2023-07-13T08:44:57;6.82;;;3.83;;
51780;SDS011;37844;57.126;24.288;2023-07-13T08:47:46;7.85;;;3.65;;
51780;SDS011;37844;57.126;24.288;2023-07-13T08:50:41;8.80;;;4.70;;
51780;SDS011;37844;57.126;24.288;2023-07-13T08:53:52;9.80;;;4.45;;
51780;SDS011;37844;57.126;24.288;2023-07-13T08:56:40;15.18;;;3.60;;
51780;SDS011;37844;57.126;24.288;2023-07-13T08:59:26;6.95;;;3.55;;
51780;SDS011;37844;57.126;24.288;2023-07-13T09:02:26;11.32;;;4.05;;
51780;SDS011;37844;57.126;24.288;2023-07-13T09:05:20;9.25;;;3.90;;
51780;SDS011;37844;57.126;24.288;2023-07-13T09:08:18;7.32;;;3.40;;
51780;SDS011;37844;57.126;24.288;2023-07-13T09:11:29;6.15;;;3.45;;
51780;SDS011;37844;57.126;24.288;2023-07-13T09:17:29;8.57;;;2.88;;
51780;SDS011;37844;57.126;24.288;2023-07-13T09:20:27;6.07;;;3.08;;
51780;SDS011;37844;57.126;24.288;2023-07-13T09:23:16;9.32;;;3.17;;
51780;SDS011;37844;57.126;24.288;2023-07-13T09:29:06;6.82;;;2.53;;
51780;SDS011;37844;57.126;24.288;2023-07-13T09:31:58;7.50;;;2.88;;
51780;SDS011;37844;57.126;24.288;2023-07-13T09:34:51;12.23;;;2.95;;
51780;SDS011;37844;57.126;24.288;2023-07-13T09:37:36;13.25;;;3.38;;
51780;SDS011;37844;57.126;24.288;2023-07-13T09:40:29;8.02;;;3.40;;
51780;SDS011;37844;57.126;24.288;2023-07-13T09:43:21;7.10;;;2.95;;
51780;SDS011;37844;57.126;24.288;2023-07-13T09:46:16;6.03;;;2.97;;
51780;SDS011;37844;57.126;24.288;2023-07-13T09:49:07;7.97;;;3.83;;
51780;SDS011;37844;57.126;24.288;2023-07-13T09:52:03;5.95;;;2.95;;
51780;SDS011;37844;57.126;24.288;2023-07-13T09:54:54;4.68;;;2.47;;
51780;SDS011;37844;57.126;24.288;2023-07-13T09:57:46;7.78;;;4.18;;
51780;SDS011;37844;57.126;24.288;2023-07-13T10:00:32;4.90;;;2.83;;
51780;SDS011;37844;57.126;24.288;2023-07-13T10:03:18;4.55;;;2.08;;
51780;SDS011;37844;57.126;24.288;2023-07-13T10:06:10;5.55;;;2.30;;
51780;SDS011;37844;57.126;24.288;2023-07-13T10:08:57;4.30;;;2.35;;
51780;SDS011;37844;57.126;24.288;2023-07-13T10:11:42;7.30;;;2.53;;
51780;SDS011;37844;57.126;24.288;2023-07-13T10:14:26;4.85;;;2.20;;
51780;SDS011;37844;57.126;24.288;2023-07-13T10:17:13;3.53;;;2.00;;
51780;SDS011;37844;57.126;24.288;2023-07-13T10:20:02;4.57;;;2.22;;
51780;SDS011;37844;57.126;24.288;2023-07-13T10:22:58;2.85;;;1.77;;
51780;SDS011;37844;57.126;24.288;2023-07-13T10:25:43;5.00;;;2.17;;
51780;SDS011;37844;57.126;24.288;2023-07-13T10:28:37;18.50;;;2.85;;
51780;SDS011;37844;57.126;24.288;2023-07-13T10:31:22;5.15;;;2.33;;
51780;SDS011;37844;57.126;24.288;2023-07-13T10:34:11;6.28;;;2.42;;
51780;SDS011;37844;57.126;24.288;2023-07-13T10:36:57;6.80;;;2.17;;
51780;SDS011;37844;57.126;24.288;2023-07-13T10:39:42;7.10;;;2.83;;
51780;SDS011;37844;57.126;24.288;2023-07-13T10:42:28;3.92;;;2.10;;
51780;SDS011;37844;57.126;24.288;2023-07-13T10:45:21;5.55;;;2.53;;
51780;SDS011;37844;57.126;24.288;2023-07-13T10:48:07;5.80;;;2.75;;
51780;SDS011;37844;57.126;24.288;2023-07-13T10:50:57;5.60;;;2.75;;
51780;SDS011;37844;57.126;24.288;2023-07-13T10:53:44;9.00;;;2.55;;
51780;SDS011;37844;57.126;24.288;2023-07-13T10:56:29;6.65;;;2.75;;
51780;SDS011;37844;57.126;24.288;2023-07-13T11:04:48;7.57;;;2.45;;
51780;SDS011;37844;57.126;24.288;2023-07-13T11:07:33;5.43;;;2.72;;
51780;SDS011;37844;57.126;24.288;2023-07-13T11:10:46;9.23;;;2.83;;
51780;SDS011;37844;57.126;24.288;2023-07-13T11:16:35;4.93;;;2.17;;
51780;SDS011;37844;57.126;24.288;2023-07-13T11:24:52;4.45;;;2.35;;
51780;SDS011;37844;57.126;24.288;2023-07-13T11:27:45;3.67;;;1.70;;
51780;SDS011;37844;57.126;24.288;2023-07-13T11:36:23;3.50;;;1.75;;
51780;SDS011;37844;57.126;24.288;2023-07-13T11:41:59;2.97;;;1.52;;
51780;SDS011;37844;57.126;24.288;2023-07-13T11:44:47;6.57;;;3.13;;
51780;SDS011;37844;57.126;24.288;2023-07-13T11:47:33;2.33;;;1.52;;
51780;SDS011;37844;57.126;24.288;2023-07-13T11:50:18;3.30;;;1.55;;
51780;SDS011;37844;57.126;24.288;2023-07-13T11:53:04;4.47;;;1.73;;
51780;SDS011;37844;57.126;24.288;2023-07-13T11:55:48;3.05;;;1.60;;
51780;SDS011;37844;57.126;24.288;2023-07-13T11:58:33;4.18;;;1.58;;
51780;SDS011;37844;57.126;24.288;2023-07-13T12:01:22;14.30;;;5.82;;
51780;SDS011;37844;57.126;24.288;2023-07-13T12:04:19;8.50;;;1.65;;
51780;SDS011;37844;57.126;24.288;2023-07-13T12:07:11;1.40;;;0.90;;
51780;SDS011;37844;57.126;24.288;2023-07-13T12:10:00;4.10;;;1.30;;
51780;SDS011;37844;57.126;24.288;2023-07-13T12:12:58;3.45;;;1.30;;
51780;SDS011;37844;57.126;24.288;2023-07-13T12:15:45;11.02;;;1.45;;
51780;SDS011;37844;57.126;24.288;2023-07-13T12:18:35;3.50;;;1.35;;
51780;SDS011;37844;57.126;24.288;2023-07-13T12:21:20;3.13;;;1.17;;
51780;SDS011;37844;57.126;24.288;2023-07-13T12:24:14;1.90;;;1.13;;
51780;SDS011;37844;57.126;24.288;2023-07-13T12:29:50;4.05;;;1.40;;
51780;SDS011;37844;57.126;24.288;2023-07-13T12:32:37;2.95;;;1.17;;
51780;SDS011;37844;57.126;24.288;2023-07-13T12:35:21;5.40;;;2.03;;
51780;SDS011;37844;57.126;24.288;2023-07-13T12:38:07;2.45;;;1.30;;
51780;SDS011;37844;57.126;24.288;2023-07-13T12:40:54;3.40;;;1.58;;
51780;SDS011;37844;57.126;24.288;2023-07-13T12:43:38;5.90;;;1.98;;
51780;SDS011;37844;57.126;24.288;2023-07-13T12:46:23;7.07;;;4.00;;
51780;SDS011;37844;57.126;24.288;2023-07-13T12:49:08;7.63;;;2.55;;
51780;SDS011;37844;57.126;24.288;2023-07-13T12:51:56;8.70;;;2.00;;
51780;SDS011;37844;57.126;24.288;2023-07-13T12:54:51;6.93;;;1.92;;
51780;SDS011;37844;57.126;24.288;2023-07-13T12:57:54;9.48;;;2.38;;
51780;SDS011;37844;57.126;24.288;2023-07-13T13:00:40;4.28;;;1.70;;
51780;SDS011;37844;57.126;24.288;2023-07-13T13:09:05;5.85;;;1.80;;
51780;SDS011;37844;57.126;24.288;2023-07-13T13:11:55;4.25;;;1.77;;
51780;SDS011;37844;57.126;24.288;2023-07-13T13:14:39;15.75;;;5.80;;
51780;SDS011;37844;57.126;24.288;2023-07-13T13:17:27;3.58;;;2.05;;
51780;SDS011;37844;57.126;24.288;2023-07-13T13:20:18;7.03;;;1.75;;
51780;SDS011;37844;57.126;24.288;2023-07-13T13:25:49;11.65;;;2.13;;
51780;SDS011;37844;57.126;24.288;2023-07-13T13:28:35;8.10;;;1.92;;
51780;SDS011;37844;57.126;24.288;2023-07-13T13:31:19;3.28;;;1.75;;
51780;SDS011;37844;57.126;24.288;2023-07-13T13:34:04;6.32;;;2.22;;
51780;SDS011;37844;57.126;24.288;2023-07-13T13:36:53;5.15;;;2.13;;
51780;SDS011;37844;57.126;24.288;2023-07-13T13:39:38;5.93;;;2.22;;
51780;SDS011;37844;57.126;24.288;2023-07-13T13:42:22;6.90;;;2.03;;
51780;SDS011;37844;57.126;24.288;2023-07-13T13:45:11;3.58;;;1.85;;
51780;SDS011;37844;57.126;24.288;2023-07-13T13:47:56;4.10;;;2.00;;
51780;SDS011;37844;57.126;24.288;2023-07-13T13:50:41;3.67;;;1.98;;
51780;SDS011;37844;57.126;24.288;2023-07-13T13:53:26;6.07;;;2.55;;
51780;SDS011;37844;57.126;24.288;2023-07-13T13:56:11;5.90;;;2.50;;
51780;SDS011;37844;57.126;24.288;2023-07-13T13:58:56;3.78;;;1.80;;
51780;SDS011;37844;57.126;24.288;2023-07-13T14:01:41;6.28;;;1.98;;
51780;SDS011;37844;57.126;24.288;2023-07-13T14:04:27;9.18;;;3.08;;
51780;SDS011;37844;57.126;24.288;2023-07-13T14:07:11;7.40;;;2.13;;
51780;SDS011;37844;57.126;24.288;2023-07-13T14:09:56;12.45;;;2.17;;
51780;SDS011;37844;57.126;24.288;2023-07-13T14:12:43;9.32;;;2.58;;
51780;SDS011;37844;57.126;24.288;2023-07-13T14:15:28;7.75;;;2.15;;
51780;SDS011;37844;57.126;24.288;2023-07-13T14:18:14;10.10;;;2.35;;
51780;SDS011;37844;57.126;24.288;2023-07-13T14:21:02;5.10;;;2.33;;
51780;SDS011;37844;57.126;24.288;2023-07-13T14:23:46;6.18;;;2.13;;
51780;SDS011;37844;57.126;24.288;2023-07-13T14:26:32;8.18;;;1.85;;
51780;SDS011;37844;57.126;24.288;2023-07-13T14:29:23;12.32;;;1.63;;
51780;SDS011;37844;57.126;24.288;2023-07-13T14:32:11;8.98;;;1.90;;
51780;SDS011;37844;57.126;24.288;2023-07-13T14:34:56;11.45;;;3.53;;
51780;SDS011;37844;57.126;24.288;2023-07-13T14:37:41;8.25;;;2.75;;
51780;SDS011;37844;57.126;24.288;2023-07-13T14:40:28;5.55;;;1.83;;
51780;SDS011;37844;57.126;24.288;2023-07-13T14:43:15;5.75;;;2.20;;
51780;SDS011;37844;57.126;24.288;2023-07-13T14:46:00;5.95;;;2.28;;
51780;SDS011;37844;57.126;24.288;2023-07-13T14:48:45;6.78;;;2.20;;
51780;SDS011;37844;57.126;24.288;2023-07-13T14:51:29;14.35;;;2.28;;
51780;SDS011;37844;57.126;24.288;2023-07-13T14:54:15;9.68;;;2.28;;
51780;SDS011;37844;57.126;24.288;2023-07-13T14:56:59;14.68;;;2.50;;
51780;SDS011;37844;57.126;24.288;2023-07-13T14:59:45;5.65;;;1.75;;
51780;SDS011;37844;57.126;24.288;2023-07-13T15:02:31;10.95;;;2.38;;
51780;SDS011;37844;57.126;24.288;2023-07-13T15:05:19;7.45;;;2.42;;
51780;SDS011;37844;57.126;24.288;2023-07-13T15:08:07;10.80;;;2.35;;
51780;SDS011;37844;57.126;24.288;2023-07-13T15:10:54;8.23;;;2.25;;
51780;SDS011;37844;57.126;24.288;2023-07-13T15:13:41;7.50;;;2.75;;
51780;SDS011;37844;57.126;24.288;2023-07-13T15:16:28;7.63;;;2.20;;
51780;SDS011;37844;57.126;24.288;2023-07-13T15:19:12;9.10;;;2.33;;
51780;SDS011;37844;57.126;24.288;2023-07-13T15:21:56;5.65;;;2.38;;
51780;SDS011;37844;57.126;24.288;2023-07-13T15:24:41;7.90;;;2.55;;
51780;SDS011;37844;57.126;24.288;2023-07-13T15:27:25;5.95;;;2.65;;
51780;SDS011;37844;57.126;24.288;2023-07-13T15:30:10;10.55;;;2.35;;
51780;SDS011;37844;57.126;24.288;2023-07-13T15:32:56;7.47;;;2.95;;
51780;SDS011;37844;57.126;24.288;2023-07-13T15:35:46;3.67;;;1.95;;
51780;SDS011;37844;57.126;24.288;2023-07-13T15:38:32;9.10;;;2.50;;
51780;SDS011;37844;57.126;24.288;2023-07-13T15:41:23;12.75;;;3.08;;
51780;SDS011;37844;57.126;24.288;2023-07-13T15:44:20;11.80;;;3.40;;
51780;SDS011;37844;57.126;24.288;2023-07-13T15:47:13;11.80;;;2.88;;
51780;SDS011;37844;57.126;24.288;2023-07-13T15:49:58;8.07;;;2.22;;
51780;SDS011;37844;57.126;24.288;2023-07-13T15:52:43;11.27;;;1.90;;
51780;SDS011;37844;57.126;24.288;2023-07-13T15:55:29;4.25;;;1.98;;
51780;SDS011;37844;57.126;24.288;2023-07-13T15:58:22;9.30;;;2.88;;
51780;SDS011;37844;57.126;24.288;2023-07-13T16:01:08;7.13;;;2.38;;
51780;SDS011;37844;57.126;24.288;2023-07-13T16:03:54;8.55;;;2.63;;
51780;SDS011;37844;57.126;24.288;2023-07-13T16:06:39;4.97;;;2.33;;
51780;SDS011;37844;57.126;24.288;2023-07-13T16:09:24;8.82;;;2.78;;
51780;SDS011;37844;57.126;24.288;2023-07-13T16:12:10;4.70;;;1.70;;
51780;SDS011;37844;57.126;24.288;2023-07-13T16:14:55;9.07;;;2.40;;
51780;SDS011;37844;57.126;24.288;2023-07-13T16:17:39;14.43;;;2.80;;
51780;SDS011;37844;57.126;24.288;2023-07-13T16:20:24;12.20;;;2.53;;
51780;SDS011;37844;57.126;24.288;2023-07-13T16:23:08;5.30;;;1.92;;
51780;SDS011;37844;57.126;24.288;2023-07-13T16:25:54;9.98;;;2.42;;
51780;SDS011;37844;57.126;24.288;2023-07-13T16:28:38;10.95;;;2.80;;
51780;SDS011;37844;57.126;24.288;2023-07-13T16:31:22;5.95;;;2.15;;
51780;SDS011;37844;57.126;24.288;2023-07-13T16:34:06;3.83;;;1.90;;
51780;SDS011;37844;57.126;24.288;2023-07-13T16:36:54;6.72;;;1.98;;
51780;SDS011;37844;57.126;24.288;2023-07-13T16:39:39;9.40;;;3.50;;
51780;SDS011;37844;57.126;24.288;2023-07-13T16:42:28;9.20;;;3.00;;
51780;SDS011;37844;57.126;24.288;2023-07-13T16:45:12;9.80;;;2.65;;
51780;SDS011;37844;57.126;24.288;2023-07-13T16:47:56;9.55;;;2.78;;
51780;SDS011;37844;57.126;24.288;2023-07-13T16:50:41;11.68;;;2.22;;
51780;SDS011;37844;57.126;24.288;2023-07-13T16:53:28;7.30;;;2.75;;
51780;SDS011;37844;57.126;24.288;2023-07-13T16:56:16;7.22;;;2.65;;
51780;SDS011;37844;57.126;24.288;2023-07-13T16:59:07;7.22;;;2.75;;
51780;SDS011;37844;57.126;24.288;2023-07-13T17:01:57;14.57;;;3.30;;
51780;SDS011;37844;57.126;24.288;2023-07-13T17:04:43;5.97;;;2.08;;